createdAt,value
2018-08-31T00:01:00.965Z,2.50
2018-08-31T00:03:40.127Z,2.53
2018-08-31T00:06:22.648Z,2.40
2018-08-31T00:09:02.126Z,2.47
2018-08-31T00:11:45.999Z,2.53
2018-08-31T00:14:12.960Z,2.83
2018-08-31T00:16:39.946Z,2.40
2018-08-31T00:19:06.871Z,2.40
2018-08-31T00:21:34.543Z,2.60
2018-08-31T00:24:13.084Z,2.63
2018-08-31T00:26:51.560Z,2.80
2018-08-31T00:29:39.970Z,3.07
2018-08-31T00:32:18.791Z,2.90
2018-08-31T00:35:03.411Z,2.93
2018-08-31T00:37:54.317Z,3.57
2018-08-31T00:40:35.844Z,2.53
2018-08-31T00:43:30.123Z,2.93
2018-08-31T00:45:57.127Z,2.83
2018-08-31T00:48:24.016Z,3.20
2018-08-31T00:50:50.976Z,2.80
2018-08-31T00:53:18.950Z,3.07
2018-08-31T00:55:47.543Z,2.40
2018-08-31T00:58:14.513Z,2.33
2018-08-31T01:00:42.419Z,2.80
2018-08-31T01:03:11.087Z,3.40
2018-08-31T01:05:38.046Z,3.37
2018-08-31T01:08:05.085Z,4.20
2018-08-31T01:10:32.063Z,2.90
2018-08-31T01:12:59.007Z,3.10
2018-08-31T01:15:26.635Z,3.30
2018-08-31T01:17:53.531Z,3.60
2018-08-31T01:20:20.531Z,2.63
2018-08-31T01:22:47.458Z,2.80
2018-08-31T01:25:14.439Z,2.53
2018-08-31T01:27:42.397Z,2.53
2018-08-31T01:30:10.081Z,2.50
2018-08-31T01:32:37.046Z,2.40
2018-08-31T01:35:03.971Z,3.00
2018-08-31T01:37:31.020Z,3.23
2018-08-31T01:39:58.024Z,3.10
2018-08-31T01:42:24.985Z,2.80
2018-08-31T01:44:51.923Z,2.60
2018-08-31T01:47:18.872Z,3.00
2018-08-31T01:49:45.947Z,2.97
2018-08-31T01:52:12.870Z,3.57
2018-08-31T01:54:39.859Z,2.97
2018-08-31T01:57:06.819Z,2.80
2018-08-31T01:59:33.776Z,2.77
2018-08-31T02:02:00.691Z,2.87
2018-08-31T02:04:27.694Z,2.80
2018-08-31T02:06:54.719Z,2.53
2018-08-31T02:09:22.088Z,2.73
2018-08-31T02:11:50.071Z,2.33
2018-08-31T02:14:18.082Z,2.67
2018-08-31T02:16:45.112Z,2.60
2018-08-31T02:19:12.091Z,2.80
2018-08-31T02:21:40.091Z,2.97
2018-08-31T02:24:07.024Z,2.90
2018-08-31T02:26:34.021Z,2.80
2018-08-31T02:29:01.443Z,2.90
2018-08-31T02:31:28.524Z,2.50
2018-08-31T02:33:55.467Z,2.53
2018-08-31T02:36:22.676Z,3.53
2018-08-31T02:38:49.791Z,3.77
2018-08-31T02:41:16.943Z,2.23
2018-08-31T02:43:44.919Z,2.60
2018-08-31T02:46:11.912Z,3.00
2018-08-31T02:48:38.895Z,2.93
2018-08-31T02:51:05.853Z,2.70
2018-08-31T02:53:32.771Z,2.97
2018-08-31T02:55:59.731Z,2.53
2018-08-31T02:58:26.730Z,2.63
2018-08-31T03:00:53.696Z,2.33
2018-08-31T03:03:20.644Z,2.90
2018-08-31T03:05:47.559Z,2.77
2018-08-31T03:08:14.577Z,2.53
2018-08-31T03:10:41.600Z,2.60
2018-08-31T03:13:08.570Z,2.37
2018-08-31T03:15:35.567Z,3.30
2018-08-31T03:18:02.647Z,2.87
2018-08-31T03:20:29.633Z,3.00
2018-08-31T03:22:56.576Z,3.07
2018-08-31T03:25:23.508Z,3.07
2018-08-31T03:27:50.504Z,2.73
2018-08-31T03:30:17.827Z,2.67
2018-08-31T03:32:45.935Z,2.77
2018-08-31T03:35:12.897Z,3.10
2018-08-31T03:37:39.855Z,3.10
2018-08-31T03:40:06.807Z,3.47
2018-08-31T03:42:33.767Z,2.80
2018-08-31T03:45:00.753Z,3.10
2018-08-31T03:47:27.647Z,3.27
2018-08-31T03:49:54.647Z,2.43
2018-08-31T03:52:21.601Z,3.53
2018-08-31T03:54:48.542Z,3.30
2018-08-31T03:57:16.185Z,2.80
2018-08-31T03:59:45.255Z,2.60
2018-08-31T04:02:13.191Z,3.03
2018-08-31T04:04:40.155Z,2.63
2018-08-31T04:07:07.148Z,2.97
2018-08-31T04:09:36.139Z,3.03
2018-08-31T04:12:03.075Z,2.83
2018-08-31T04:14:30.039Z,3.60
2018-08-31T04:16:57.034Z,3.17
2018-08-31T04:19:23.993Z,3.13
2018-08-31T04:21:50.915Z,3.37
2018-08-31T04:24:18.975Z,3.30
2018-08-31T04:26:46.451Z,3.30
2018-08-31T04:29:13.436Z,3.50
2018-08-31T04:31:40.516Z,3.13
2018-08-31T04:34:09.436Z,3.50
2018-08-31T04:36:36.376Z,3.00
2018-08-31T04:39:04.887Z,3.50
2018-08-31T04:41:31.799Z,3.17
2018-08-31T04:43:59.783Z,3.30
2018-08-31T04:46:26.756Z,2.80
2018-08-31T04:48:53.748Z,4.00
2018-08-31T04:51:20.675Z,3.40
2018-08-31T04:53:48.128Z,3.17
2018-08-31T04:56:15.098Z,2.83
2018-08-31T04:58:42.052Z,3.30
2018-08-31T05:01:09.029Z,3.67
2018-08-31T05:03:36.983Z,3.50
2018-08-31T05:06:04.434Z,3.13
2018-08-31T05:08:31.424Z,2.60
2018-08-31T05:10:58.363Z,3.47
2018-08-31T05:13:25.311Z,3.50
2018-08-31T05:15:52.306Z,3.70
2018-08-31T05:18:19.241Z,3.10
2018-08-31T05:20:46.189Z,3.37
2018-08-31T05:23:13.144Z,3.30
2018-08-31T05:25:40.096Z,2.93
2018-08-31T05:28:07.051Z,3.20
2018-08-31T05:30:34.012Z,3.50
2018-08-31T05:33:01.996Z,3.57
2018-08-31T05:35:29.008Z,3.83
2018-08-31T05:37:55.929Z,3.63
2018-08-31T05:40:22.963Z,3.50
2018-08-31T05:42:49.964Z,3.50
2018-08-31T05:45:17.696Z,2.80
2018-08-31T05:47:44.687Z,3.17
2018-08-31T05:50:11.595Z,3.40
2018-08-31T05:52:38.606Z,3.50
2018-08-31T05:55:05.520Z,3.23
2018-08-31T05:57:32.496Z,3.30
2018-08-31T05:59:59.455Z,3.50
2018-08-31T06:02:26.419Z,4.73
2018-08-31T06:04:53.425Z,4.10
2018-08-31T06:07:21.220Z,3.20
2018-08-31T06:09:48.718Z,2.97
2018-08-31T06:12:15.671Z,4.30
2018-08-31T06:14:42.644Z,3.30
2018-08-31T06:17:13.059Z,3.10
2018-08-31T06:19:40.739Z,3.40
2018-08-31T06:22:07.700Z,3.30
2018-08-31T06:24:34.655Z,3.63
2018-08-31T06:27:02.156Z,3.07
2018-08-31T06:29:31.176Z,3.13
2018-08-31T06:31:58.087Z,3.30
2018-08-31T06:34:26.312Z,3.20
2018-08-31T06:36:54.496Z,3.00
2018-08-31T06:39:21.435Z,2.50
2018-08-31T06:41:48.363Z,3.17
2018-08-31T06:44:15.374Z,3.30
2018-08-31T06:46:43.262Z,3.90
2018-08-31T06:49:10.167Z,3.17
2018-08-31T06:51:37.161Z,3.80
2018-08-31T06:54:04.156Z,3.23
2018-08-31T06:56:31.809Z,3.40
2018-08-31T06:58:58.721Z,2.83
2018-08-31T07:01:25.667Z,3.30
2018-08-31T07:03:52.723Z,3.00
2018-08-31T07:06:19.616Z,3.10
2018-08-31T07:08:47.267Z,3.43
2018-08-31T07:11:14.187Z,2.97
2018-08-31T07:13:41.199Z,3.60
2018-08-31T07:16:09.147Z,4.53
2018-08-31T07:18:36.816Z,3.30
2018-08-31T07:21:03.819Z,3.90
2018-08-31T07:23:30.751Z,3.87
2018-08-31T07:25:57.771Z,4.07
2018-08-31T07:28:25.787Z,4.97
2018-08-31T07:30:52.772Z,3.40
2018-08-31T07:33:19.747Z,3.57
2018-08-31T07:35:46.710Z,3.10
2018-08-31T07:38:13.627Z,3.30
2018-08-31T07:40:40.605Z,3.47
2018-08-31T07:43:07.531Z,3.90
2018-08-31T07:45:34.491Z,3.57
2018-08-31T07:48:01.447Z,3.27
2018-08-31T07:50:28.468Z,3.53
2018-08-31T07:52:56.448Z,3.70
2018-08-31T07:55:23.340Z,2.90
2018-08-31T07:57:50.312Z,3.10
2018-08-31T08:00:17.371Z,2.90
2018-08-31T08:02:44.296Z,3.13
2018-08-31T08:05:11.740Z,3.83
2018-08-31T08:07:38.672Z,4.60
2018-08-31T08:10:05.680Z,3.43
2018-08-31T08:12:32.561Z,3.30
2018-08-31T08:14:59.519Z,3.30
2018-08-31T08:17:26.441Z,3.70
2018-08-31T08:19:53.433Z,3.40
2018-08-31T08:22:20.392Z,4.10
2018-08-31T08:24:47.374Z,3.07
2018-08-31T08:27:14.315Z,3.20
2018-08-31T08:29:41.274Z,3.13
2018-08-31T08:32:08.228Z,2.80
2018-08-31T08:34:35.176Z,3.23
2018-08-31T08:37:02.139Z,3.57
2018-08-31T08:39:29.144Z,3.20
2018-08-31T08:41:56.824Z,3.53
2018-08-31T08:44:23.732Z,3.30
2018-08-31T08:46:50.595Z,4.27
2018-08-31T08:49:17.515Z,3.50
2018-08-31T08:51:45.568Z,3.97
2018-08-31T08:54:12.507Z,3.97
2018-08-31T08:56:39.461Z,3.40
2018-08-31T08:59:06.402Z,4.10
2018-08-31T09:01:33.363Z,3.93
2018-08-31T09:04:00.340Z,4.13
2018-08-31T09:06:27.809Z,4.40
2018-08-31T09:08:54.731Z,4.00
2018-08-31T09:11:21.720Z,3.50
2018-08-31T09:13:48.685Z,3.60
2018-08-31T09:16:15.619Z,3.80
2018-08-31T09:18:42.590Z,3.83
2018-08-31T09:21:09.528Z,3.90
2018-08-31T09:23:36.487Z,4.00
2018-08-31T09:26:06.084Z,3.50
2018-08-31T09:28:33.084Z,3.93
2018-08-31T09:31:00.052Z,4.10
2018-08-31T09:33:27.016Z,3.60
2018-08-31T09:35:54.020Z,3.53
2018-08-31T09:38:20.910Z,4.33
2018-08-31T09:40:49.799Z,4.83
2018-08-31T09:43:17.372Z,3.63
2018-08-31T09:45:44.372Z,4.90
2018-08-31T09:48:11.287Z,4.10
2018-08-31T09:50:38.249Z,4.00
2018-08-31T09:53:05.159Z,3.83
2018-08-31T09:55:32.152Z,4.33
2018-08-31T09:57:59.185Z,4.20
2018-08-31T10:00:32.074Z,4.20
2018-08-31T10:03:04.592Z,4.10
2018-08-31T10:05:31.574Z,4.00
2018-08-31T10:07:58.542Z,4.60
2018-08-31T10:10:25.501Z,4.57
2018-08-31T10:12:52.435Z,4.70
2018-08-31T10:15:19.379Z,4.00
2018-08-31T10:17:46.331Z,4.23
2018-08-31T10:20:13.359Z,3.93
2018-08-31T10:22:40.408Z,4.17
2018-08-31T10:25:07.287Z,4.60
2018-08-31T10:27:34.311Z,4.73
2018-08-31T10:30:01.304Z,4.30
2018-08-31T10:32:28.196Z,4.17
2018-08-31T10:34:55.161Z,4.00
2018-08-31T10:37:22.063Z,4.10
2018-08-31T10:39:49.096Z,5.30
2018-08-31T10:42:16.016Z,4.67
2018-08-31T10:44:42.994Z,4.47
2018-08-31T10:47:09.936Z,4.30
2018-08-31T10:49:36.914Z,4.67
2018-08-31T10:52:03.813Z,4.57
2018-08-31T10:54:30.799Z,5.23
2018-08-31T10:56:57.766Z,4.90
2018-08-31T10:59:24.716Z,5.67
2018-08-31T11:01:51.674Z,4.60
2018-08-31T11:04:18.643Z,5.00
2018-08-31T11:06:45.580Z,4.67
2018-08-31T11:09:12.572Z,4.40
2018-08-31T11:11:39.541Z,4.40
2018-08-31T11:14:06.462Z,5.50
2018-08-31T11:16:33.442Z,4.17
2018-08-31T11:19:00.424Z,4.30
2018-08-31T11:21:27.319Z,4.10
2018-08-31T11:23:54.283Z,5.30
2018-08-31T11:26:21.254Z,4.60
2018-08-31T11:28:48.224Z,4.00
2018-08-31T11:31:15.644Z,4.50
2018-08-31T11:33:42.639Z,4.77
2018-08-31T11:36:09.628Z,4.90
2018-08-31T11:38:36.564Z,4.17
2018-08-31T11:41:03.657Z,3.87
2018-08-31T11:43:30.604Z,4.47
2018-08-31T11:45:57.543Z,4.70
2018-08-31T11:48:24.476Z,4.97
2018-08-31T11:50:51.499Z,5.40
2018-08-31T11:53:18.475Z,4.70
2018-08-31T11:55:45.468Z,3.70
2018-08-31T11:58:12.411Z,4.03
2018-08-31T12:00:39.386Z,5.40
2018-08-31T12:03:06.327Z,4.57
2018-08-31T12:05:33.345Z,4.58
2018-08-31T12:08:00.341Z,5.10
2018-08-31T12:10:27.311Z,4.87
2018-08-31T12:12:55.228Z,4.13
2018-08-31T12:15:22.147Z,4.53
2018-08-31T12:17:49.094Z,4.33
2018-08-31T12:20:16.056Z,4.97
2018-08-31T12:22:42.976Z,4.30
2018-08-31T12:25:09.967Z,4.30
2018-08-31T12:27:36.959Z,4.90
2018-08-31T12:30:03.909Z,4.43
2018-08-31T12:32:30.966Z,4.43
2018-08-31T12:34:57.925Z,5.00
2018-08-31T12:37:24.847Z,5.03
2018-08-31T12:39:51.815Z,4.33
2018-08-31T12:42:18.775Z,4.50
2018-08-31T12:44:45.761Z,5.20
2018-08-31T12:47:12.676Z,4.50
2018-08-31T12:49:39.715Z,4.63
2018-08-31T12:52:06.802Z,4.80
2018-08-31T12:54:33.804Z,4.73
2018-08-31T12:57:00.723Z,4.73
2018-08-31T12:59:27.794Z,4.77
2018-08-31T13:01:54.928Z,5.20
2018-08-31T13:04:21.796Z,4.67
2018-08-31T13:06:48.777Z,4.50
2018-08-31T13:09:15.711Z,5.20
2018-08-31T13:11:42.695Z,5.10
2018-08-31T13:14:09.630Z,5.20
2018-08-31T13:16:36.580Z,4.33
2018-08-31T13:19:03.540Z,4.13
2018-08-31T13:21:30.527Z,5.13
2018-08-31T13:23:57.486Z,4.90
2018-08-31T13:26:24.407Z,4.77
2018-08-31T13:28:51.414Z,4.63
2018-08-31T13:31:18.353Z,5.07
2018-08-31T13:33:45.308Z,4.30
2018-08-31T13:36:12.275Z,5.20
2018-08-31T13:38:39.184Z,4.20
2018-08-31T13:41:06.159Z,4.90
2018-08-31T13:43:33.112Z,5.13
2018-08-31T13:46:00.068Z,4.30
2018-08-31T13:48:27.092Z,4.53
2018-08-31T13:50:54.422Z,4.57
2018-08-31T13:53:21.378Z,4.67
2018-08-31T13:55:48.307Z,4.77
2018-08-31T13:58:15.277Z,5.30
2018-08-31T14:00:42.233Z,5.07
2018-08-31T14:03:09.160Z,4.50
2018-08-31T14:05:36.150Z,4.90
2018-08-31T14:08:04.127Z,4.20
2018-08-31T14:10:31.102Z,4.13
2018-08-31T14:12:58.955Z,4.40
2018-08-31T14:15:25.919Z,4.20
2018-08-31T14:17:52.878Z,4.03
2018-08-31T14:20:19.914Z,3.90
2018-08-31T14:22:46.904Z,4.27
2018-08-31T14:25:13.887Z,3.63
2018-08-31T14:27:40.810Z,3.87
2018-08-31T14:30:07.759Z,4.33
2018-08-31T14:32:34.754Z,4.03
2018-08-31T14:35:01.708Z,3.87
2018-08-31T14:37:28.843Z,4.20
2018-08-31T14:39:55.795Z,3.97
2018-08-31T14:42:24.385Z,4.00
2018-08-31T14:44:51.468Z,4.40
2018-08-31T14:47:19.510Z,3.27
2018-08-31T14:49:46.529Z,3.67
2018-08-31T14:52:14.435Z,4.10
2018-08-31T14:54:41.451Z,3.93
2018-08-31T14:57:08.400Z,3.43
2018-08-31T14:59:35.454Z,3.73
2018-08-31T15:02:02.412Z,3.77
2018-08-31T15:04:29.367Z,4.57
2018-08-31T15:06:57.040Z,3.90
2018-08-31T15:09:24.060Z,4.20
2018-08-31T15:11:51.100Z,3.50
2018-08-31T15:14:19.127Z,4.00
2018-08-31T15:16:46.155Z,3.70
2018-08-31T15:19:13.057Z,3.67
2018-08-31T15:21:40.018Z,3.90
2018-08-31T15:24:06.979Z,3.53
2018-08-31T15:26:33.939Z,4.17
2018-08-31T15:29:00.859Z,3.30
2018-08-31T15:31:27.952Z,3.57
2018-08-31T15:33:54.807Z,4.17
2018-08-31T15:36:22.351Z,3.60
2018-08-31T15:38:51.139Z,3.77
2018-08-31T15:41:18.155Z,3.63
2018-08-31T15:43:45.092Z,4.03
2018-08-31T15:46:12.063Z,3.80
2018-08-31T15:48:39.038Z,3.63
2018-08-31T15:51:05.999Z,3.33
2018-08-31T15:53:33.959Z,5.30
2018-08-31T15:56:00.962Z,5.63
2018-08-31T15:58:27.830Z,6.00
2018-08-31T16:00:54.795Z,6.10
2018-08-31T16:03:22.600Z,6.57
2018-08-31T16:05:49.552Z,5.70
2018-08-31T16:08:16.490Z,6.33
2018-08-31T16:10:44.111Z,5.10
2018-08-31T16:13:11.070Z,5.70
2018-08-31T16:15:38.021Z,6.07
2018-08-31T16:18:04.947Z,5.40
2018-08-31T16:20:31.967Z,6.50
2018-08-31T16:22:58.889Z,6.40
2018-08-31T16:25:26.534Z,5.57
2018-08-31T16:27:53.478Z,6.03
2018-08-31T16:30:20.444Z,6.20
2018-08-31T16:32:47.448Z,5.70
2018-08-31T16:35:14.408Z,5.67
2018-08-31T16:37:41.345Z,6.17
2018-08-31T16:40:08.340Z,6.00
2018-08-31T16:42:35.474Z,6.13
2018-08-31T16:45:02.416Z,6.30
2018-08-31T16:47:29.395Z,6.00
2018-08-31T16:49:56.387Z,6.20
2018-08-31T16:52:23.296Z,6.00
2018-08-31T16:54:50.238Z,5.43
2018-08-31T16:57:17.196Z,5.33
2018-08-31T16:59:44.269Z,5.93
2018-08-31T17:02:11.235Z,5.70
2018-08-31T17:04:38.177Z,6.07
2018-08-31T17:07:05.131Z,6.07
2018-08-31T17:09:32.197Z,5.20
2018-08-31T17:11:59.435Z,6.27
2018-08-31T17:14:26.407Z,5.60
2018-08-31T17:16:53.372Z,5.10
2018-08-31T17:19:20.351Z,6.53
2018-08-31T17:21:47.378Z,6.10
2018-08-31T17:24:14.347Z,5.97
2018-08-31T17:26:47.079Z,6.27
2018-08-31T17:29:19.895Z,6.63
2018-08-31T17:31:52.560Z,6.17
2018-08-31T17:34:25.207Z,6.20
2018-08-31T17:36:57.955Z,6.40
2018-08-31T17:39:25.569Z,5.37
2018-08-31T17:41:52.540Z,6.57
2018-08-31T17:44:19.493Z,5.53
2018-08-31T17:46:47.160Z,6.83
2018-08-31T17:49:14.127Z,7.13
2018-08-31T17:51:41.098Z,6.20
2018-08-31T17:54:08.057Z,6.50
2018-08-31T17:56:35.055Z,5.97
2018-08-31T17:59:01.960Z,5.80
2018-08-31T18:01:28.969Z,6.70
2018-08-31T18:03:55.946Z,7.00
2018-08-31T18:06:22.856Z,9.17
2018-08-31T18:08:50.845Z,10.57
2018-08-31T18:11:17.743Z,7.43
2018-08-31T18:13:44.744Z,6.83
2018-08-31T18:16:11.719Z,7.97
2018-08-31T18:18:38.635Z,6.10
2018-08-31T18:21:05.618Z,6.57
2018-08-31T18:23:32.554Z,5.37
2018-08-31T18:25:59.623Z,6.33
2018-08-31T18:28:26.484Z,6.00
2018-08-31T18:30:53.647Z,6.40
2018-08-31T18:33:20.582Z,6.27
2018-08-31T18:35:47.552Z,6.40
2018-08-31T18:38:14.492Z,6.80
2018-08-31T18:40:41.461Z,7.17
2018-08-31T18:43:08.470Z,6.57
2018-08-31T18:45:35.378Z,6.93
2018-08-31T18:48:02.353Z,7.25
2018-08-31T18:50:29.344Z,9.93
2018-08-31T18:52:56.267Z,7.33
2018-08-31T18:55:23.216Z,8.10
2018-08-31T18:57:50.186Z,6.67
2018-08-31T19:00:17.416Z,8.90
2018-08-31T19:02:44.522Z,7.33
2018-08-31T19:05:12.052Z,6.60
2018-08-31T19:07:39.121Z,6.97
2018-08-31T19:10:06.047Z,7.20
2018-08-31T19:12:33.173Z,7.33
2018-08-31T19:15:00.129Z,6.60
2018-08-31T19:17:27.088Z,5.90
2018-08-31T19:19:54.024Z,6.87
2018-08-31T19:22:21.011Z,6.80
2018-08-31T19:24:47.899Z,5.77
2018-08-31T19:27:14.839Z,5.47
2018-08-31T19:29:41.799Z,5.63
2018-08-31T19:32:09.195Z,6.70
2018-08-31T19:34:36.704Z,8.20
2018-08-31T19:37:03.651Z,6.93
2018-08-31T19:39:30.651Z,5.97
2018-08-31T19:41:57.539Z,6.07
2018-08-31T19:44:24.519Z,5.40
2018-08-31T19:46:51.599Z,6.07
2018-08-31T19:49:18.392Z,5.67
2018-08-31T19:51:45.367Z,5.90
2018-08-31T19:54:12.397Z,5.70
2018-08-31T19:56:39.268Z,5.53
2018-08-31T19:59:06.223Z,6.60
2018-08-31T20:01:33.227Z,6.00
2018-08-31T20:04:00.703Z,5.30
2018-08-31T20:06:27.687Z,5.77
2018-08-31T20:08:55.183Z,5.70
2018-08-31T20:11:22.167Z,5.90
2018-08-31T20:13:49.833Z,7.20
2018-08-31T20:16:17.226Z,6.43
2018-08-31T20:18:44.157Z,6.87
2018-08-31T20:21:11.127Z,8.07
2018-08-31T20:23:38.095Z,9.20
2018-08-31T20:26:05.114Z,8.70
2018-08-31T20:28:32.099Z,8.33
2018-08-31T20:31:00.076Z,8.53
2018-08-31T20:33:26.948Z,9.30
2018-08-31T20:35:53.904Z,7.83
2018-08-31T20:38:20.885Z,9.27
2018-08-31T20:40:47.876Z,8.17
2018-08-31T20:43:14.968Z,9.17
2018-08-31T20:45:41.906Z,9.60
2018-08-31T20:48:08.939Z,10.70
2018-08-31T20:50:35.942Z,11.33
2018-08-31T20:53:02.930Z,9.43
2018-08-31T20:55:29.913Z,9.83
2018-08-31T20:57:56.883Z,9.77
2018-08-31T21:00:23.895Z,9.20
2018-08-31T21:02:50.876Z,9.90
2018-08-31T21:05:17.760Z,9.83
2018-08-31T21:07:44.780Z,10.27
2018-08-31T21:10:11.740Z,10.37
2018-08-31T21:12:38.697Z,11.23
2018-08-31T21:15:05.607Z,10.87
2018-08-31T21:17:33.632Z,11.80
2018-08-31T21:20:00.683Z,11.27
2018-08-31T21:22:27.663Z,10.73
2018-08-31T21:24:55.332Z,10.83
2018-08-31T21:27:22.271Z,10.50
2018-08-31T21:29:49.216Z,10.87
2018-08-31T21:32:16.161Z,12.87
2018-08-31T21:34:43.015Z,12.13
2018-08-31T21:37:09.951Z,12.33
2018-08-31T21:39:36.979Z,12.00
2018-08-31T21:42:04.077Z,11.03
2018-08-31T21:44:30.951Z,11.77
2018-08-31T21:46:57.883Z,10.80
2018-08-31T21:49:24.928Z,11.43
2018-08-31T21:51:54.827Z,12.67
2018-08-31T21:54:21.747Z,11.80
2018-08-31T21:56:48.699Z,11.40
2018-08-31T21:59:17.712Z,12.00
2018-08-31T22:01:52.651Z,13.10
2018-08-31T22:04:19.703Z,13.05
2018-08-31T22:06:46.627Z,11.80
2018-08-31T22:09:13.649Z,9.90
2018-08-31T22:11:40.600Z,10.20
2018-08-31T22:14:08.304Z,10.40
2018-08-31T22:16:35.232Z,10.13
2018-08-31T22:19:02.379Z,10.10
2018-08-31T22:21:29.312Z,8.77
2018-08-31T22:23:56.391Z,10.30
2018-08-31T22:26:23.352Z,9.13
2018-08-31T22:28:50.305Z,10.63
2018-08-31T22:31:17.219Z,10.87
2018-08-31T22:33:44.255Z,10.53
2018-08-31T22:36:11.177Z,10.60
2018-08-31T22:38:38.154Z,10.63
2018-08-31T22:41:05.101Z,10.27
2018-08-31T22:43:37.804Z,10.70
2018-08-31T22:46:04.802Z,10.00
2018-08-31T22:48:31.731Z,9.30
2018-08-31T22:50:58.626Z,9.30
2018-08-31T22:53:25.625Z,8.23
2018-08-31T22:55:53.296Z,8.60
2018-08-31T22:58:20.867Z,8.90
2018-08-31T23:00:47.779Z,10.00
2018-08-31T23:03:15.305Z,9.03
2018-08-31T23:05:44.186Z,9.23
2018-08-31T23:08:11.152Z,9.53
2018-08-31T23:10:38.830Z,9.33
2018-08-31T23:13:05.819Z,9.37
2018-08-31T23:15:32.723Z,9.53
2018-08-31T23:17:59.707Z,9.90
2018-08-31T23:20:26.696Z,8.00
2018-08-31T23:22:59.310Z,9.53
2018-08-31T23:25:32.681Z,8.40
2018-08-31T23:28:00.362Z,9.10
2018-08-31T23:30:27.315Z,10.17
2018-08-31T23:32:54.855Z,9.00
2018-08-31T23:35:21.824Z,10.30
2018-08-31T23:37:51.339Z,7.87
2018-08-31T23:40:18.829Z,7.17
2018-08-31T23:42:46.379Z,7.57
2018-08-31T23:45:13.307Z,7.40
2018-08-31T23:47:40.392Z,7.27
2018-08-31T23:50:07.355Z,6.50
2018-08-31T23:52:34.298Z,5.60
2018-08-31T23:55:01.868Z,7.20
2018-08-31T23:57:28.872Z,6.73
2018-08-31T23:59:55.809Z,5.93
